sensor_id;sensor_type;location;lat;lon;timestamp;P1;durP1;ratioP1;P2;durP2;ratioP2
11604;SDS011;5858;43.076;25.626;2023-03-31T00:02:03;10.67;;;6.13;;
11604;SDS011;5858;43.076;25.626;2023-03-31T00:04:37;22.07;;;11.20;;
11604;SDS011;5858;43.076;25.626;2023-03-31T00:07:10;25.40;;;12.50;;
11604;SDS011;5858;43.076;25.626;2023-03-31T00:09:38;25.30;;;11.00;;
11604;SDS011;5858;43.076;25.626;2023-03-31T00:12:10;23.40;;;10.03;;
11604;SDS011;5858;43.076;25.626;2023-03-31T00:14:39;13.97;;;7.57;;
11604;SDS011;5858;43.076;25.626;2023-03-31T00:17:06;15.00;;;7.43;;
11604;SDS011;5858;43.076;25.626;2023-03-31T00:19:33;12.57;;;6.40;;
11604;SDS011;5858;43.076;25.626;2023-03-31T00:22:00;11.73;;;6.23;;
11604;SDS011;5858;43.076;25.626;2023-03-31T00:24:29;18.53;;;8.17;;
11604;SDS011;5858;43.076;25.626;2023-03-31T00:26:58;13.03;;;6.40;;
11604;SDS011;5858;43.076;25.626;2023-03-31T00:29:25;15.23;;;7.67;;
11604;SDS011;5858;43.076;25.626;2023-03-31T00:31:54;17.07;;;6.93;;
11604;SDS011;5858;43.076;25.626;2023-03-31T00:34:21;14.47;;;5.93;;
11604;SDS011;5858;43.076;25.626;2023-03-31T00:36:48;14.00;;;5.97;;
11604;SDS011;5858;43.076;25.626;2023-03-31T00:39:16;11.17;;;5.47;;
11604;SDS011;5858;43.076;25.626;2023-03-31T00:41:44;11.43;;;5.53;;
11604;SDS011;5858;43.076;25.626;2023-03-31T00:44:12;9.97;;;5.97;;
11604;SDS011;5858;43.076;25.626;2023-03-31T00:46:48;10.33;;;6.27;;
11604;SDS011;5858;43.076;25.626;2023-03-31T00:49:24;17.63;;;9.70;;
11604;SDS011;5858;43.076;25.626;2023-03-31T00:51:55;17.33;;;9.03;;
11604;SDS011;5858;43.076;25.626;2023-03-31T00:54:26;10.60;;;6.10;;
11604;SDS011;5858;43.076;25.626;2023-03-31T00:56:54;14.13;;;7.57;;
11604;SDS011;5858;43.076;25.626;2023-03-31T00:59:27;11.67;;;7.10;;
11604;SDS011;5858;43.076;25.626;2023-03-31T01:01:57;7.87;;;5.40;;
11604;SDS011;5858;43.076;25.626;2023-03-31T01:04:29;10.97;;;4.70;;
11604;SDS011;5858;43.076;25.626;2023-03-31T01:07:01;7.87;;;4.30;;
11604;SDS011;5858;43.076;25.626;2023-03-31T01:09:33;9.43;;;5.13;;
11604;SDS011;5858;43.076;25.626;2023-03-31T01:12:03;9.07;;;4.77;;
11604;SDS011;5858;43.076;25.626;2023-03-31T01:14:33;11.93;;;5.83;;
11604;SDS011;5858;43.076;25.626;2023-03-31T01:17:03;9.33;;;5.37;;
11604;SDS011;5858;43.076;25.626;2023-03-31T01:19:37;9.50;;;5.40;;
11604;SDS011;5858;43.076;25.626;2023-03-31T01:28:26;9.10;;;5.10;;
11604;SDS011;5858;43.076;25.626;2023-03-31T01:31:13;8.57;;;5.23;;
11604;SDS011;5858;43.076;25.626;2023-03-31T01:34:08;8.43;;;4.50;;
11604;SDS011;5858;43.076;25.626;2023-03-31T01:37:14;8.20;;;4.37;;
11604;SDS011;5858;43.076;25.626;2023-03-31T01:40:09;6.87;;;4.20;;
11604;SDS011;5858;43.076;25.626;2023-03-31T01:42:46;11.20;;;4.00;;
11604;SDS011;5858;43.076;25.626;2023-03-31T01:45:20;13.40;;;7.30;;
11604;SDS011;5858;43.076;25.626;2023-03-31T01:48:03;7.80;;;5.47;;
11604;SDS011;5858;43.076;25.626;2023-03-31T01:50:37;17.67;;;7.13;;
11604;SDS011;5858;43.076;25.626;2023-03-31T01:53:13;9.53;;;5.80;;
11604;SDS011;5858;43.076;25.626;2023-03-31T01:55:46;12.23;;;5.80;;
11604;SDS011;5858;43.076;25.626;2023-03-31T01:58:20;9.83;;;6.20;;
11604;SDS011;5858;43.076;25.626;2023-03-31T02:00:54;14.17;;;6.67;;
11604;SDS011;5858;43.076;25.626;2023-03-31T02:03:27;10.83;;;5.47;;
11604;SDS011;5858;43.076;25.626;2023-03-31T02:05:59;7.47;;;4.50;;
11604;SDS011;5858;43.076;25.626;2023-03-31T02:08:33;7.93;;;4.37;;
11604;SDS011;5858;43.076;25.626;2023-03-31T02:11:05;5.63;;;3.60;;
11604;SDS011;5858;43.076;25.626;2023-03-31T02:13:32;6.47;;;4.23;;
11604;SDS011;5858;43.076;25.626;2023-03-31T02:16:03;8.47;;;4.57;;
11604;SDS011;5858;43.076;25.626;2023-03-31T02:18:33;10.73;;;4.33;;
11604;SDS011;5858;43.076;25.626;2023-03-31T02:21:06;10.83;;;4.37;;
11604;SDS011;5858;43.076;25.626;2023-03-31T02:23:34;7.03;;;4.03;;
11604;SDS011;5858;43.076;25.626;2023-03-31T02:26:06;8.50;;;4.43;;
11604;SDS011;5858;43.076;25.626;2023-03-31T02:28:37;5.63;;;4.00;;
11604;SDS011;5858;43.076;25.626;2023-03-31T02:31:07;5.30;;;3.77;;
11604;SDS011;5858;43.076;25.626;2023-03-31T02:33:46;8.23;;;3.83;;
11604;SDS011;5858;43.076;25.626;2023-03-31T02:36:13;6.33;;;3.37;;
11604;SDS011;5858;43.076;25.626;2023-03-31T02:38:42;9.00;;;3.53;;
11604;SDS011;5858;43.076;25.626;2023-03-31T02:41:14;6.40;;;3.60;;
11604;SDS011;5858;43.076;25.626;2023-03-31T02:43:41;4.60;;;2.60;;
11604;SDS011;5858;43.076;25.626;2023-03-31T02:46:08;6.43;;;3.43;;
11604;SDS011;5858;43.076;25.626;2023-03-31T02:48:36;7.97;;;4.37;;
11604;SDS011;5858;43.076;25.626;2023-03-31T02:51:14;7.60;;;3.10;;
11604;SDS011;5858;43.076;25.626;2023-03-31T02:54:07;7.70;;;3.07;;
11604;SDS011;5858;43.076;25.626;2023-03-31T02:57:17;10.53;;;4.83;;
11604;SDS011;5858;43.076;25.626;2023-03-31T03:00:02;10.80;;;4.83;;
11604;SDS011;5858;43.076;25.626;2023-03-31T03:02:36;8.47;;;4.70;;
11604;SDS011;5858;43.076;25.626;2023-03-31T03:05:14;7.30;;;5.10;;
11604;SDS011;5858;43.076;25.626;2023-03-31T03:07:48;7.23;;;4.73;;
11604;SDS011;5858;43.076;25.626;2023-03-31T03:10:25;8.33;;;4.10;;
11604;SDS011;5858;43.076;25.626;2023-03-31T03:13:05;6.83;;;3.60;;
11604;SDS011;5858;43.076;25.626;2023-03-31T03:15:40;7.23;;;3.23;;
11604;SDS011;5858;43.076;25.626;2023-03-31T03:18:12;6.63;;;3.77;;
11604;SDS011;5858;43.076;25.626;2023-03-31T03:20:40;5.97;;;3.93;;
11604;SDS011;5858;43.076;25.626;2023-03-31T03:23:12;6.77;;;3.70;;
11604;SDS011;5858;43.076;25.626;2023-03-31T03:25:39;7.63;;;3.63;;
11604;SDS011;5858;43.076;25.626;2023-03-31T03:28:08;8.83;;;4.73;;
11604;SDS011;5858;43.076;25.626;2023-03-31T03:30:35;8.00;;;4.00;;
11604;SDS011;5858;43.076;25.626;2023-03-31T03:33:02;5.80;;;4.40;;
11604;SDS011;5858;43.076;25.626;2023-03-31T03:35:30;5.80;;;3.80;;
11604;SDS011;5858;43.076;25.626;2023-03-31T03:37:57;9.43;;;4.47;;
11604;SDS011;5858;43.076;25.626;2023-03-31T03:40:24;8.37;;;4.13;;
11604;SDS011;5858;43.076;25.626;2023-03-31T03:42:51;9.53;;;4.73;;
11604;SDS011;5858;43.076;25.626;2023-03-31T03:45:19;8.10;;;4.33;;
11604;SDS011;5858;43.076;25.626;2023-03-31T03:47:47;9.03;;;4.80;;
11604;SDS011;5858;43.076;25.626;2023-03-31T03:50:14;8.63;;;4.73;;
11604;SDS011;5858;43.076;25.626;2023-03-31T03:52:41;8.67;;;4.73;;
11604;SDS011;5858;43.076;25.626;2023-03-31T03:55:09;6.80;;;4.60;;
11604;SDS011;5858;43.076;25.626;2023-03-31T03:57:36;8.47;;;4.83;;
11604;SDS011;5858;43.076;25.626;2023-03-31T04:00:04;8.53;;;5.40;;
11604;SDS011;5858;43.076;25.626;2023-03-31T04:02:36;9.50;;;5.30;;
11604;SDS011;5858;43.076;25.626;2023-03-31T04:05:03;11.20;;;6.30;;
11604;SDS011;5858;43.076;25.626;2023-03-31T04:07:30;6.53;;;5.53;;
11604;SDS011;5858;43.076;25.626;2023-03-31T04:09:57;7.20;;;4.90;;
11604;SDS011;5858;43.076;25.626;2023-03-31T04:12:24;6.53;;;4.27;;
11604;SDS011;5858;43.076;25.626;2023-03-31T04:14:51;11.53;;;4.97;;
11604;SDS011;5858;43.076;25.626;2023-03-31T04:17:18;9.20;;;5.60;;
11604;SDS011;5858;43.076;25.626;2023-03-31T04:19:57;10.03;;;5.33;;
11604;SDS011;5858;43.076;25.626;2023-03-31T04:22:28;11.50;;;5.10;;
11604;SDS011;5858;43.076;25.626;2023-03-31T04:24:59;11.97;;;5.20;;
11604;SDS011;5858;43.076;25.626;2023-03-31T04:27:27;8.90;;;5.33;;
11604;SDS011;5858;43.076;25.626;2023-03-31T04:29:55;7.87;;;5.33;;
11604;SDS011;5858;43.076;25.626;2023-03-31T04:32:22;8.80;;;5.67;;
11604;SDS011;5858;43.076;25.626;2023-03-31T04:34:49;11.27;;;5.13;;
11604;SDS011;5858;43.076;25.626;2023-03-31T04:37:28;16.53;;;4.90;;
11604;SDS011;5858;43.076;25.626;2023-03-31T04:39:58;11.93;;;5.97;;
11604;SDS011;5858;43.076;25.626;2023-03-31T04:42:32;10.43;;;5.87;;
11604;SDS011;5858;43.076;25.626;2023-03-31T04:44:59;7.13;;;4.73;;
11604;SDS011;5858;43.076;25.626;2023-03-31T04:47:27;8.80;;;5.63;;
11604;SDS011;5858;43.076;25.626;2023-03-31T04:49:54;11.73;;;5.70;;
11604;SDS011;5858;43.076;25.626;2023-03-31T04:52:21;8.53;;;5.03;;
11604;SDS011;5858;43.076;25.626;2023-03-31T04:54:49;9.93;;;4.77;;
11604;SDS011;5858;43.076;25.626;2023-03-31T04:57:16;4.60;;;3.77;;
11604;SDS011;5858;43.076;25.626;2023-03-31T04:59:43;5.43;;;3.33;;
11604;SDS011;5858;43.076;25.626;2023-03-31T05:02:10;5.27;;;3.50;;
11604;SDS011;5858;43.076;25.626;2023-03-31T05:04:37;5.87;;;3.50;;
11604;SDS011;5858;43.076;25.626;2023-03-31T05:07:04;7.97;;;4.37;;
11604;SDS011;5858;43.076;25.626;2023-03-31T05:09:31;7.43;;;3.27;;
11604;SDS011;5858;43.076;25.626;2023-03-31T05:11:59;10.00;;;3.70;;
11604;SDS011;5858;43.076;25.626;2023-03-31T05:14:26;10.27;;;3.80;;
11604;SDS011;5858;43.076;25.626;2023-03-31T05:16:54;6.40;;;4.03;;
11604;SDS011;5858;43.076;25.626;2023-03-31T05:19:24;5.70;;;4.33;;
11604;SDS011;5858;43.076;25.626;2023-03-31T05:21:52;9.13;;;4.50;;
11604;SDS011;5858;43.076;25.626;2023-03-31T05:24:19;6.00;;;4.47;;
11604;SDS011;5858;43.076;25.626;2023-03-31T05:26:46;7.73;;;4.20;;
11604;SDS011;5858;43.076;25.626;2023-03-31T05:29:18;10.73;;;4.60;;
11604;SDS011;5858;43.076;25.626;2023-03-31T05:31:46;9.80;;;5.83;;
11604;SDS011;5858;43.076;25.626;2023-03-31T05:34:14;6.83;;;5.40;;
11604;SDS011;5858;43.076;25.626;2023-03-31T05:36:41;8.83;;;5.10;;
11604;SDS011;5858;43.076;25.626;2023-03-31T05:39:08;8.37;;;5.60;;
11604;SDS011;5858;43.076;25.626;2023-03-31T05:41:35;12.17;;;6.00;;
11604;SDS011;5858;43.076;25.626;2023-03-31T05:44:03;15.73;;;6.73;;
11604;SDS011;5858;43.076;25.626;2023-03-31T05:46:32;9.57;;;5.90;;
11604;SDS011;5858;43.076;25.626;2023-03-31T05:48:59;19.43;;;9.63;;
11604;SDS011;5858;43.076;25.626;2023-03-31T05:51:26;12.37;;;5.10;;
11604;SDS011;5858;43.076;25.626;2023-03-31T05:53:53;7.73;;;4.03;;
11604;SDS011;5858;43.076;25.626;2023-03-31T05:56:20;6.60;;;4.47;;
11604;SDS011;5858;43.076;25.626;2023-03-31T05:58:48;10.17;;;5.03;;
11604;SDS011;5858;43.076;25.626;2023-03-31T06:01:16;8.77;;;5.97;;
11604;SDS011;5858;43.076;25.626;2023-03-31T06:03:46;11.33;;;6.13;;
11604;SDS011;5858;43.076;25.626;2023-03-31T06:06:14;11.57;;;6.80;;
11604;SDS011;5858;43.076;25.626;2023-03-31T06:08:42;9.63;;;6.10;;
11604;SDS011;5858;43.076;25.626;2023-03-31T06:11:10;10.77;;;6.53;;
11604;SDS011;5858;43.076;25.626;2023-03-31T06:13:40;7.60;;;6.33;;
11604;SDS011;5858;43.076;25.626;2023-03-31T06:16:08;14.07;;;6.80;;
11604;SDS011;5858;43.076;25.626;2023-03-31T06:18:36;13.43;;;7.20;;
11604;SDS011;5858;43.076;25.626;2023-03-31T06:21:05;14.80;;;8.60;;
11604;SDS011;5858;43.076;25.626;2023-03-31T06:23:33;12.30;;;7.67;;
11604;SDS011;5858;43.076;25.626;2023-03-31T06:26:00;18.77;;;11.70;;
11604;SDS011;5858;43.076;25.626;2023-03-31T06:28:30;27.93;;;16.63;;
11604;SDS011;5858;43.076;25.626;2023-03-31T06:30:58;41.23;;;23.23;;
11604;SDS011;5858;43.076;25.626;2023-03-31T06:33:26;10.37;;;8.77;;
11604;SDS011;5858;43.076;25.626;2023-03-31T06:35:54;15.67;;;12.37;;
11604;SDS011;5858;43.076;25.626;2023-03-31T06:38:23;15.43;;;8.50;;
11604;SDS011;5858;43.076;25.626;2023-03-31T06:40:50;21.43;;;12.07;;
11604;SDS011;5858;43.076;25.626;2023-03-31T06:43:17;11.43;;;8.10;;
11604;SDS011;5858;43.076;25.626;2023-03-31T06:45:44;13.27;;;9.13;;
11604;SDS011;5858;43.076;25.626;2023-03-31T06:48:12;15.27;;;11.07;;
11604;SDS011;5858;43.076;25.626;2023-03-31T06:50:39;17.43;;;12.23;;
11604;SDS011;5858;43.076;25.626;2023-03-31T06:53:07;23.33;;;13.80;;
11604;SDS011;5858;43.076;25.626;2023-03-31T06:55:36;19.77;;;13.47;;
11604;SDS011;5858;43.076;25.626;2023-03-31T06:58:04;22.53;;;15.00;;
11604;SDS011;5858;43.076;25.626;2023-03-31T07:00:32;12.93;;;9.03;;
11604;SDS011;5858;43.076;25.626;2023-03-31T07:02:59;9.97;;;7.13;;
11604;SDS011;5858;43.076;25.626;2023-03-31T07:05:28;8.47;;;6.07;;
11604;SDS011;5858;43.076;25.626;2023-03-31T07:07:56;10.10;;;6.37;;
11604;SDS011;5858;43.076;25.626;2023-03-31T07:10:25;10.23;;;6.77;;
11604;SDS011;5858;43.076;25.626;2023-03-31T07:12:55;11.30;;;7.43;;
11604;SDS011;5858;43.076;25.626;2023-03-31T07:15:23;10.73;;;6.60;;
11604;SDS011;5858;43.076;25.626;2023-03-31T07:17:54;8.67;;;6.50;;
11604;SDS011;5858;43.076;25.626;2023-03-31T07:20:26;11.57;;;6.97;;
11604;SDS011;5858;43.076;25.626;2023-03-31T07:22:53;9.30;;;6.70;;
11604;SDS011;5858;43.076;25.626;2023-03-31T07:25:21;9.03;;;6.83;;
11604;SDS011;5858;43.076;25.626;2023-03-31T07:27:49;13.63;;;7.60;;
11604;SDS011;5858;43.076;25.626;2023-03-31T07:30:18;15.20;;;8.77;;
11604;SDS011;5858;43.076;25.626;2023-03-31T07:32:47;16.07;;;9.07;;
11604;SDS011;5858;43.076;25.626;2023-03-31T07:35:15;23.40;;;11.00;;
11604;SDS011;5858;43.076;25.626;2023-03-31T07:37:45;19.93;;;10.43;;
11604;SDS011;5858;43.076;25.626;2023-03-31T07:40:14;17.83;;;11.50;;
11604;SDS011;5858;43.076;25.626;2023-03-31T07:42:44;16.93;;;9.90;;
11604;SDS011;5858;43.076;25.626;2023-03-31T07:45:13;15.50;;;10.47;;
11604;SDS011;5858;43.076;25.626;2023-03-31T07:47:42;17.77;;;10.83;;
11604;SDS011;5858;43.076;25.626;2023-03-31T07:50:10;22.90;;;13.53;;
11604;SDS011;5858;43.076;25.626;2023-03-31T07:52:38;22.87;;;15.53;;
11604;SDS011;5858;43.076;25.626;2023-03-31T07:55:06;24.67;;;15.47;;
11604;SDS011;5858;43.076;25.626;2023-03-31T07:57:33;22.10;;;13.90;;
11604;SDS011;5858;43.076;25.626;2023-03-31T08:00:02;21.90;;;14.77;;
11604;SDS011;5858;43.076;25.626;2023-03-31T08:02:32;22.57;;;14.03;;
11604;SDS011;5858;43.076;25.626;2023-03-31T08:05:04;21.20;;;13.63;;
11604;SDS011;5858;43.076;25.626;2023-03-31T08:07:34;11.87;;;8.63;;
11604;SDS011;5858;43.076;25.626;2023-03-31T08:10:02;11.17;;;9.20;;
11604;SDS011;5858;43.076;25.626;2023-03-31T08:12:31;10.53;;;7.57;;
11604;SDS011;5858;43.076;25.626;2023-03-31T08:14:58;12.20;;;9.00;;
11604;SDS011;5858;43.076;25.626;2023-03-31T08:17:25;14.47;;;9.77;;
11604;SDS011;5858;43.076;25.626;2023-03-31T08:19:52;13.20;;;9.40;;
11604;SDS011;5858;43.076;25.626;2023-03-31T08:22:21;14.20;;;9.53;;
11604;SDS011;5858;43.076;25.626;2023-03-31T08:24:48;10.50;;;7.83;;
11604;SDS011;5858;43.076;25.626;2023-03-31T08:27:15;10.90;;;7.63;;
11604;SDS011;5858;43.076;25.626;2023-03-31T08:29:42;10.17;;;7.03;;
11604;SDS011;5858;43.076;25.626;2023-03-31T08:32:09;11.27;;;7.87;;
11604;SDS011;5858;43.076;25.626;2023-03-31T08:34:36;12.80;;;8.37;;
11604;SDS011;5858;43.076;25.626;2023-03-31T08:37:06;12.53;;;7.30;;
11604;SDS011;5858;43.076;25.626;2023-03-31T08:39:35;9.70;;;7.37;;
11604;SDS011;5858;43.076;25.626;2023-03-31T08:42:04;11.67;;;8.80;;
11604;SDS011;5858;43.076;25.626;2023-03-31T08:44:35;10.30;;;8.90;;
11604;SDS011;5858;43.076;25.626;2023-03-31T08:47:09;12.10;;;8.53;;
11604;SDS011;5858;43.076;25.626;2023-03-31T08:49:43;8.53;;;6.83;;
11604;SDS011;5858;43.076;25.626;2023-03-31T08:52:14;12.63;;;8.60;;
11604;SDS011;5858;43.076;25.626;2023-03-31T08:54:48;7.70;;;6.90;;
11604;SDS011;5858;43.076;25.626;2023-03-31T08:57:21;7.47;;;6.60;;
11604;SDS011;5858;43.076;25.626;2023-03-31T08:59:52;8.90;;;6.27;;
11604;SDS011;5858;43.076;25.626;2023-03-31T09:02:24;10.20;;;6.97;;
11604;SDS011;5858;43.076;25.626;2023-03-31T09:05:09;8.80;;;7.23;;
11604;SDS011;5858;43.076;25.626;2023-03-31T09:07:57;8.73;;;6.90;;
11604;SDS011;5858;43.076;25.626;2023-03-31T09:10:36;7.77;;;6.80;;
11604;SDS011;5858;43.076;25.626;2023-03-31T09:13:17;8.30;;;6.47;;
11604;SDS011;5858;43.076;25.626;2023-03-31T09:16:13;11.00;;;7.27;;
11604;SDS011;5858;43.076;25.626;2023-03-31T09:18:41;9.83;;;7.13;;
11604;SDS011;5858;43.076;25.626;2023-03-31T09:21:13;8.60;;;6.93;;
11604;SDS011;5858;43.076;25.626;2023-03-31T09:23:45;9.37;;;6.80;;
11604;SDS011;5858;43.076;25.626;2023-03-31T09:26:22;9.20;;;7.00;;
11604;SDS011;5858;43.076;25.626;2023-03-31T09:28:53;9.13;;;7.53;;
11604;SDS011;5858;43.076;25.626;2023-03-31T09:31:22;8.70;;;6.87;;
11604;SDS011;5858;43.076;25.626;2023-03-31T09:33:52;7.97;;;6.47;;
11604;SDS011;5858;43.076;25.626;2023-03-31T09:36:25;10.37;;;6.63;;
11604;SDS011;5858;43.076;25.626;2023-03-31T09:38:52;9.20;;;6.40;;
11604;SDS011;5858;43.076;25.626;2023-03-31T09:41:20;9.57;;;5.77;;
11604;SDS011;5858;43.076;25.626;2023-03-31T09:43:48;13.60;;;5.60;;
11604;SDS011;5858;43.076;25.626;2023-03-31T09:46:17;8.07;;;5.40;;
11604;SDS011;5858;43.076;25.626;2023-03-31T09:48:57;7.97;;;6.20;;
11604;SDS011;5858;43.076;25.626;2023-03-31T09:51:31;6.83;;;5.43;;
11604;SDS011;5858;43.076;25.626;2023-03-31T09:54:03;9.55;;;6.18;;
11604;SDS011;5858;43.076;25.626;2023-03-31T09:56:45;11.48;;;7.05;;
11604;SDS011;5858;43.076;25.626;2023-03-31T09:59:18;9.27;;;5.82;;
11604;SDS011;5858;43.076;25.626;2023-03-31T10:01:46;11.73;;;6.63;;
11604;SDS011;5858;43.076;25.626;2023-03-31T10:04:18;12.02;;;7.95;;
11604;SDS011;5858;43.076;25.626;2023-03-31T10:06:48;7.80;;;4.78;;
11604;SDS011;5858;43.076;25.626;2023-03-31T10:09:17;6.38;;;3.25;;
11604;SDS011;5858;43.076;25.626;2023-03-31T10:11:51;6.25;;;3.95;;
11604;SDS011;5858;43.076;25.626;2023-03-31T10:14:31;8.02;;;3.17;;
11604;SDS011;5858;43.076;25.626;2023-03-31T10:17:11;6.65;;;2.67;;
11604;SDS011;5858;43.076;25.626;2023-03-31T10:19:46;8.05;;;2.90;;
11604;SDS011;5858;43.076;25.626;2023-03-31T10:22:14;8.00;;;3.37;;
11604;SDS011;5858;43.076;25.626;2023-03-31T10:24:52;7.93;;;3.72;;
11604;SDS011;5858;43.076;25.626;2023-03-31T10:27:20;9.13;;;3.50;;
11604;SDS011;5858;43.076;25.626;2023-03-31T10:29:52;5.90;;;3.30;;
11604;SDS011;5858;43.076;25.626;2023-03-31T10:32:22;4.53;;;3.17;;
11604;SDS011;5858;43.076;25.626;2023-03-31T10:34:53;7.53;;;3.47;;
11604;SDS011;5858;43.076;25.626;2023-03-31T10:37:22;7.43;;;3.80;;
11604;SDS011;5858;43.076;25.626;2023-03-31T10:39:55;6.23;;;3.53;;
11604;SDS011;5858;43.076;25.626;2023-03-31T10:42:24;12.10;;;3.87;;
11604;SDS011;5858;43.076;25.626;2023-03-31T10:47:52;5.63;;;3.50;;
11604;SDS011;5858;43.076;25.626;2023-03-31T10:50:25;6.27;;;3.20;;
11604;SDS011;5858;43.076;25.626;2023-03-31T10:52:59;11.50;;;4.83;;
11604;SDS011;5858;43.076;25.626;2023-03-31T10:55:29;11.63;;;3.53;;
11604;SDS011;5858;43.076;25.626;2023-03-31T10:58:04;9.13;;;3.40;;
11604;SDS011;5858;43.076;25.626;2023-03-31T11:00:37;7.70;;;3.47;;
11604;SDS011;5858;43.076;25.626;2023-03-31T11:06:20;6.73;;;3.37;;
11604;SDS011;5858;43.076;25.626;2023-03-31T11:08:58;11.57;;;3.27;;
11604;SDS011;5858;43.076;25.626;2023-03-31T11:11:42;6.80;;;3.27;;
11604;SDS011;5858;43.076;25.626;2023-03-31T11:14:23;5.17;;;2.90;;
11604;SDS011;5858;43.076;25.626;2023-03-31T11:16:59;4.57;;;2.83;;
11604;SDS011;5858;43.076;25.626;2023-03-31T11:19:37;7.80;;;3.03;;
11604;SDS011;5858;43.076;25.626;2023-03-31T11:22:14;3.33;;;2.70;;
11604;SDS011;5858;43.076;25.626;2023-03-31T11:27:49;5.13;;;2.72;;
11604;SDS011;5858;43.076;25.626;2023-03-31T11:30:28;6.97;;;3.47;;
11604;SDS011;5858;43.076;25.626;2023-03-31T11:33:03;4.40;;;3.13;;
11604;SDS011;5858;43.076;25.626;2023-03-31T11:35:45;4.28;;;3.35;;
11604;SDS011;5858;43.076;25.626;2023-03-31T11:38:33;10.43;;;3.53;;
11604;SDS011;5858;43.076;25.626;2023-03-31T11:41:12;5.97;;;2.90;;
11604;SDS011;5858;43.076;25.626;2023-03-31T11:43:43;5.22;;;2.20;;
11604;SDS011;5858;43.076;25.626;2023-03-31T11:46:14;5.30;;;2.88;;
11604;SDS011;5858;43.076;25.626;2023-03-31T11:48:46;4.32;;;2.70;;
11604;SDS011;5858;43.076;25.626;2023-03-31T11:51:23;6.63;;;2.58;;
11604;SDS011;5858;43.076;25.626;2023-03-31T11:53:55;4.00;;;2.03;;
11604;SDS011;5858;43.076;25.626;2023-03-31T11:56:26;5.07;;;2.30;;
11604;SDS011;5858;43.076;25.626;2023-03-31T11:59:13;3.65;;;2.70;;
11604;SDS011;5858;43.076;25.626;2023-03-31T12:01:44;2.88;;;2.38;;
11604;SDS011;5858;43.076;25.626;2023-03-31T12:04:19;3.35;;;2.25;;
11604;SDS011;5858;43.076;25.626;2023-03-31T12:06:54;3.75;;;2.30;;
11604;SDS011;5858;43.076;25.626;2023-03-31T12:09:29;3.50;;;2.50;;
11604;SDS011;5858;43.076;25.626;2023-03-31T12:12:04;4.18;;;2.00;;
11604;SDS011;5858;43.076;25.626;2023-03-31T12:14:38;2.90;;;2.25;;
11604;SDS011;5858;43.076;25.626;2023-03-31T12:17:09;3.90;;;1.58;;
11604;SDS011;5858;43.076;25.626;2023-03-31T12:19:43;5.72;;;2.22;;
11604;SDS011;5858;43.076;25.626;2023-03-31T12:22:15;2.63;;;1.60;;
11604;SDS011;5858;43.076;25.626;2023-03-31T12:24:47;2.30;;;1.67;;
11604;SDS011;5858;43.076;25.626;2023-03-31T12:27:15;3.65;;;1.70;;
11604;SDS011;5858;43.076;25.626;2023-03-31T12:29:47;4.72;;;1.73;;
11604;SDS011;5858;43.076;25.626;2023-03-31T12:32:21;2.90;;;2.30;;
11604;SDS011;5858;43.076;25.626;2023-03-31T12:34:53;2.88;;;1.50;;
11604;SDS011;5858;43.076;25.626;2023-03-31T12:37:31;4.47;;;1.45;;
11604;SDS011;5858;43.076;25.626;2023-03-31T12:40:20;3.53;;;1.70;;
11604;SDS011;5858;43.076;25.626;2023-03-31T12:43:10;2.97;;;1.60;;
11604;SDS011;5858;43.076;25.626;2023-03-31T12:46:02;3.33;;;1.58;;
11604;SDS011;5858;43.076;25.626;2023-03-31T12:48:47;2.90;;;1.60;;
11604;SDS011;5858;43.076;25.626;2023-03-31T12:51:24;3.95;;;1.83;;
11604;SDS011;5858;43.076;25.626;2023-03-31T12:54:13;4.05;;;2.15;;
11604;SDS011;5858;43.076;25.626;2023-03-31T12:57:11;2.78;;;1.95;;
11604;SDS011;5858;43.076;25.626;2023-03-31T12:59:41;4.68;;;2.33;;
11604;SDS011;5858;43.076;25.626;2023-03-31T13:02:16;5.63;;;2.22;;
11604;SDS011;5858;43.076;25.626;2023-03-31T13:04:48;5.68;;;3.25;;
11604;SDS011;5858;43.076;25.626;2023-03-31T13:15:48;3.63;;;2.40;;
11604;SDS011;5858;43.076;25.626;2023-03-31T13:18:17;3.13;;;2.00;;
11604;SDS011;5858;43.076;25.626;2023-03-31T13:20:46;4.60;;;2.40;;
11604;SDS011;5858;43.076;25.626;2023-03-31T13:23:24;4.20;;;2.15;;
11604;SDS011;5858;43.076;25.626;2023-03-31T13:25:52;5.18;;;2.83;;
11604;SDS011;5858;43.076;25.626;2023-03-31T13:28:26;6.20;;;2.67;;
11604;SDS011;5858;43.076;25.626;2023-03-31T13:30:59;2.97;;;1.88;;
11604;SDS011;5858;43.076;25.626;2023-03-31T13:33:29;3.25;;;1.70;;
11604;SDS011;5858;43.076;25.626;2023-03-31T13:39:35;4.25;;;1.52;;
11604;SDS011;5858;43.076;25.626;2023-03-31T13:42:41;2.00;;;1.50;;
11604;SDS011;5858;43.076;25.626;2023-03-31T13:45:40;3.47;;;1.90;;
11604;SDS011;5858;43.076;25.626;2023-03-31T13:48:19;2.05;;;1.50;;
11604;SDS011;5858;43.076;25.626;2023-03-31T13:51:14;3.15;;;1.52;;
11604;SDS011;5858;43.076;25.626;2023-03-31T13:57:04;3.00;;;1.63;;
11604;SDS011;5858;43.076;25.626;2023-03-31T14:00:05;1.85;;;1.35;;
11604;SDS011;5858;43.076;25.626;2023-03-31T14:03:03;4.78;;;1.95;;
11604;SDS011;5858;43.076;25.626;2023-03-31T14:05:39;3.03;;;1.92;;
11604;SDS011;5858;43.076;25.626;2023-03-31T14:08:09;3.17;;;1.30;;
11604;SDS011;5858;43.076;25.626;2023-03-31T14:10:39;1.80;;;1.58;;
11604;SDS011;5858;43.076;25.626;2023-03-31T14:13:10;2.50;;;1.90;;
11604;SDS011;5858;43.076;25.626;2023-03-31T14:15:39;2.03;;;1.50;;
11604;SDS011;5858;43.076;25.626;2023-03-31T14:18:12;2.70;;;1.58;;
11604;SDS011;5858;43.076;25.626;2023-03-31T14:20:46;3.05;;;1.80;;
11604;SDS011;5858;43.076;25.626;2023-03-31T14:23:29;2.50;;;1.70;;
11604;SDS011;5858;43.076;25.626;2023-03-31T14:26:09;3.47;;;1.75;;
11604;SDS011;5858;43.076;25.626;2023-03-31T14:28:50;2.00;;;1.40;;
11604;SDS011;5858;43.076;25.626;2023-03-31T14:31:25;1.45;;;1.17;;
11604;SDS011;5858;43.076;25.626;2023-03-31T14:37:01;3.83;;;1.70;;
11604;SDS011;5858;43.076;25.626;2023-03-31T14:39:30;2.00;;;1.83;;
11604;SDS011;5858;43.076;25.626;2023-03-31T14:42:02;2.28;;;1.70;;
11604;SDS011;5858;43.076;25.626;2023-03-31T14:44:32;1.48;;;1.35;;
11604;SDS011;5858;43.076;25.626;2023-03-31T14:46:59;2.22;;;1.63;;
11604;SDS011;5858;43.076;25.626;2023-03-31T14:49:27;1.63;;;1.30;;
11604;SDS011;5858;43.076;25.626;2023-03-31T14:51:58;2.97;;;1.60;;
11604;SDS011;5858;43.076;25.626;2023-03-31T14:54:33;2.58;;;1.50;;
11604;SDS011;5858;43.076;25.626;2023-03-31T14:57:02;3.22;;;1.70;;
11604;SDS011;5858;43.076;25.626;2023-03-31T14:59:31;3.25;;;1.67;;
11604;SDS011;5858;43.076;25.626;2023-03-31T15:02:02;1.90;;;1.30;;
11604;SDS011;5858;43.076;25.626;2023-03-31T15:04:31;2.00;;;1.55;;
11604;SDS011;5858;43.076;25.626;2023-03-31T15:07:10;1.75;;;1.65;;
11604;SDS011;5858;43.076;25.626;2023-03-31T15:09:37;3.97;;;2.00;;
11604;SDS011;5858;43.076;25.626;2023-03-31T15:12:06;2.88;;;1.75;;
11604;SDS011;5858;43.076;25.626;2023-03-31T15:14:39;3.25;;;2.05;;
11604;SDS011;5858;43.076;25.626;2023-03-31T15:17:15;7.25;;;1.95;;
11604;SDS011;5858;43.076;25.626;2023-03-31T15:19:51;7.32;;;2.40;;
11604;SDS011;5858;43.076;25.626;2023-03-31T15:22:21;4.45;;;2.72;;
11604;SDS011;5858;43.076;25.626;2023-03-31T15:24:50;2.85;;;1.70;;
11604;SDS011;5858;43.076;25.626;2023-03-31T15:27:19;5.80;;;2.45;;
11604;SDS011;5858;43.076;25.626;2023-03-31T15:29:56;4.55;;;2.47;;
11604;SDS011;5858;43.076;25.626;2023-03-31T15:32:26;4.68;;;2.50;;
11604;SDS011;5858;43.076;25.626;2023-03-31T15:34:55;3.15;;;2.42;;
11604;SDS011;5858;43.076;25.626;2023-03-31T15:37:25;2.72;;;2.35;;
11604;SDS011;5858;43.076;25.626;2023-03-31T15:39:57;2.70;;;1.98;;
11604;SDS011;5858;43.076;25.626;2023-03-31T15:42:26;7.43;;;3.35;;
11604;SDS011;5858;43.076;25.626;2023-03-31T15:44:55;4.00;;;2.42;;
11604;SDS011;5858;43.076;25.626;2023-03-31T15:47:35;4.03;;;2.38;;